Time;durP1;ratioP1;P1;durP2;ratioP2;P2;SDS_P1;SDS_P2;PMS_P1;PMS_P2;Temp;Humidity;BMP_temperature;BMP_pressure;BME280_temperature;BME280_humidity;BME280_pressure;Samples;Min_cycle;Max_cycle;Signal;HPM_P1;HPM_P2
2023/12/05 00:02:18;;;;;;;16.00;9.90;;;;;;;0.18;80.13;95616.66;4863891;29;20050;-80
2023/12/05 00:04:47;;;;;;;15.70;10.20;;;;;;;0.19;79.70;95613.94;4863754;29;20064;-80
2023/12/05 00:07:15;;;;;;;15.00;10.52;;;;;;;0.23;79.70;95613.69;4863219;29;20146;-79
2023/12/05 00:09:42;;;;;;;18.23;11.52;;;;;;;0.26;79.76;95629.56;4863591;29;20105;-79
2023/12/05 00:12:10;;;;;;;18.15;12.25;;;;;;;0.29;79.93;95624.19;4863489;29;20053;-80
2023/12/05 00:14:38;;;;;;;15.85;11.00;;;;;;;0.32;79.99;95629.00;4863820;29;20499;-79
2023/12/05 00:17:05;;;;;;;15.52;10.70;;;;;;;0.37;80.03;95631.97;4864224;29;20085;-78
2023/12/05 00:19:33;;;;;;;16.23;11.90;;;;;;;0.41;79.89;95624.78;4863622;29;20095;-79
2023/12/05 00:22:02;;;;;;;16.30;11.52;;;;;;;0.46;80.17;95629.50;4861882;29;20057;-79
2023/12/05 00:24:29;;;;;;;17.63;12.57;;;;;;;0.51;79.87;95632.44;4863391;29;20140;-79
2023/12/05 00:26:57;;;;;;;18.05;12.52;;;;;;;0.53;79.61;95635.69;4864315;29;20488;-79
2023/12/05 00:29:25;;;;;;;20.17;11.88;;;;;;;0.56;79.38;95630.25;4863156;29;20082;-79
2023/12/05 00:31:53;;;;;;;20.77;13.68;;;;;;;0.58;78.91;95625.78;4863409;29;20057;-79
2023/12/05 00:34:20;;;;;;;17.77;13.32;;;;;;;0.59;78.92;95630.78;4863613;29;20508;-79
2023/12/05 00:36:49;;;;;;;19.65;13.75;;;;;;;0.63;79.45;95630.50;4863813;29;20055;-79
2023/12/05 00:39:17;;;;;;;21.42;14.10;;;;;;;0.64;79.16;95621.84;4862957;29;20117;-80
2023/12/05 00:41:46;;;;;;;21.38;14.02;;;;;;;0.66;78.73;95630.22;4863567;29;20057;-79
2023/12/05 00:44:14;;;;;;;23.95;14.85;;;;;;;0.66;78.43;95610.47;4863321;29;20085;-79
2023/12/05 00:46:41;;;;;;;20.55;15.35;;;;;;;0.66;78.89;95627.66;4862923;29;20136;-79
2023/12/05 00:49:09;;;;;;;23.75;15.95;;;;;;;0.66;78.71;95618.19;4862656;29;20093;-79
2023/12/05 00:51:37;;;;;;;22.45;16.15;;;;;;;0.65;78.17;95623.44;4862828;29;20061;-79
2023/12/05 00:54:05;;;;;;;23.23;15.20;;;;;;;0.65;78.02;95624.25;4862589;29;20093;-79
2023/12/05 00:56:34;;;;;;;24.88;16.25;;;;;;;0.65;77.98;95619.13;4862700;29;20149;-79
2023/12/05 00:59:01;;;;;;;24.20;16.05;;;;;;;0.65;78.34;95623.44;4862662;29;20106;-79
2023/12/05 01:01:29;;;;;;;22.77;15.75;;;;;;;0.66;78.17;95618.19;4863174;29;20141;-80
2023/12/05 01:03:57;;;;;;;26.08;16.80;;;;;;;0.66;77.89;95615.63;4862682;29;20059;-80
2023/12/05 01:06:25;;;;;;;23.90;16.13;;;;;;;0.65;77.90;95608.84;4863105;29;20397;-80
2023/12/05 01:08:52;;;;;;;23.13;15.68;;;;;;;0.66;78.41;95609.69;4862801;29;20500;-79
2023/12/05 01:11:20;;;;;;;26.35;17.17;;;;;;;0.66;78.81;95615.63;4863053;29;20076;-79
2023/12/05 01:13:49;;;;;;;24.92;16.48;;;;;;;0.69;79.14;95614.50;4862564;29;20054;-79
2023/12/05 01:16:17;;;;;;;23.10;14.82;;;;;;;0.72;79.49;95611.66;4862807;29;20085;-80
2023/12/05 01:18:44;;;;;;;24.40;15.68;;;;;;;0.75;79.75;95617.31;4862589;29;20563;-80
2023/12/05 01:21:12;;;;;;;25.02;14.80;;;;;;;0.79;79.84;95618.63;4863189;29;20144;-80
2023/12/05 01:23:41;;;;;;;24.95;15.23;;;;;;;0.85;79.88;95613.88;4863135;29;20140;-80
2023/12/05 01:26:08;;;;;;;23.67;15.55;;;;;;;0.90;80.32;95616.81;4863042;29;20056;-79
2023/12/05 01:28:36;;;;;;;24.02;15.82;;;;;;;0.93;80.24;95626.78;4862090;29;20122;-79
2023/12/05 01:31:05;;;;;;;26.67;15.70;;;;;;;0.95;80.84;95619.75;4861935;29;20088;-79
2023/12/05 01:33:33;;;;;;;22.30;15.00;;;;;;;0.98;80.59;95619.44;4861885;29;20057;-80
2023/12/05 01:36:00;;;;;;;19.98;14.02;;;;;;;1.01;80.34;95619.16;4861771;29;20492;-80
2023/12/05 01:38:28;;;;;;;20.58;13.10;;;;;;;1.06;80.97;95616.16;4862574;29;20089;-79
2023/12/05 01:40:55;;;;;;;22.05;14.32;;;;;;;1.10;80.84;95618.28;4861924;29;20726;-80
2023/12/05 01:43:23;;;;;;;20.65;14.55;;;;;;;1.13;80.69;95612.84;4868556;29;20457;-80
2023/12/05 01:45:51;;;;;;;25.13;15.30;;;;;;;1.16;80.83;95612.56;4870422;29;20060;-80
2023/12/05 01:48:21;;;;;;;26.27;15.70;;;;;;;1.18;80.59;95615.78;4865474;29;20049;-79
2023/12/05 01:50:49;;;;;;;24.23;15.35;;;;;;;1.20;80.40;95619.03;4877112;29;20425;-79
2023/12/05 01:53:17;;;;;;;21.25;14.15;;;;;;;1.21;80.54;95609.56;4870303;29;20060;-80
2023/12/05 01:55:45;;;;;;;20.40;13.32;;;;;;;1.22;80.57;95617.13;4862088;29;20122;-80
2023/12/05 01:58:14;;;;;;;22.33;13.85;;;;;;;1.24;80.69;95619.50;4860194;29;20467;-79
2023/12/05 02:00:42;;;;;;;21.45;14.85;;;;;;;1.27;80.56;95614.09;4863189;29;20060;-80
2023/12/05 02:03:10;;;;;;;24.02;15.20;;;;;;;1.28;80.24;95615.69;4860762;29;20087;-80
2023/12/05 02:05:40;;;;;;;23.25;14.57;;;;;;;1.31;80.60;95615.41;4859994;29;20060;-80
2023/12/05 02:08:11;;;;;;;21.95;14.48;;;;;;;1.32;80.74;95617.03;4859130;29;20069;-80
2023/12/05 02:10:39;;;;;;;22.00;14.65;;;;;;;1.32;80.40;95608.50;4861236;29;20140;-80
2023/12/05 02:13:07;;;;;;;21.08;13.68;;;;;;;1.32;80.66;95605.94;4861150;29;20065;-80
2023/12/05 02:15:34;;;;;;;21.60;15.27;;;;;;;1.33;80.48;95603.19;4861231;29;20124;-80
2023/12/05 02:18:11;;;;;;;22.30;14.25;;;;;;;1.33;80.65;95600.63;4859096;29;20057;-80
2023/12/05 02:20:47;;;;;;;21.10;13.40;;;;;;;1.33;80.66;95598.06;4859737;29;20133;-80
2023/12/05 02:23:42;;;;;;;20.20;13.32;;;;;;;1.33;81.09;95592.13;4860499;29;20056;-79
2023/12/05 02:26:19;;;;;;;24.73;14.95;;;;;;;1.32;80.72;95595.66;4861921;29;20096;-79
2023/12/05 02:28:49;;;;;;;20.27;12.95;;;;;;;1.33;80.58;95592.94;4861225;29;20160;-80
2023/12/05 02:31:17;;;;;;;21.67;13.00;;;;;;;1.35;80.69;95590.22;4861249;29;20500;-80
2023/12/05 02:36:36;;;;;;;21.13;13.07;;;;;;;1.39;81.19;95594.09;4820641;29;20058;-80
2023/12/05 02:39:12;;;;;;;18.42;12.50;;;;;;;1.40;81.33;95591.41;4822396;29;20149;-80
2023/12/05 02:41:45;;;;;;;22.33;13.90;;;;;;;1.42;81.52;95594.63;4824134;29;20068;-80
2023/12/05 02:44:16;;;;;;;18.48;12.45;;;;;;;1.48;81.37;95595.78;4824637;29;20165;-80
2023/12/05 02:46:45;;;;;;;19.17;12.02;;;;;;;1.51;81.61;95589.53;4826905;29;20046;-80
2023/12/05 02:49:13;;;;;;;20.52;13.80;;;;;;;1.54;81.30;95595.19;4826714;29;20090;-79
2023/12/05 02:51:41;;;;;;;19.95;12.80;;;;;;;1.57;81.46;95588.91;4827470;29;20042;-80
2023/12/05 02:54:09;;;;;;;20.83;13.85;;;;;;;1.59;81.80;95595.53;4826524;29;20054;-79
2023/12/05 02:56:36;;;;;;;18.48;12.52;;;;;;;1.60;81.89;95597.16;4826270;29;20050;-80
2023/12/05 02:59:04;;;;;;;20.58;13.15;;;;;;;1.62;81.86;95608.09;4827964;29;20094;-80
2023/12/05 03:01:39;;;;;;;20.83;14.07;;;;;;;1.63;82.21;95598.59;4827352;29;20054;-80
2023/12/05 03:04:07;;;;;;;16.90;12.23;;;;;;;1.67;81.99;95609.41;4827936;29;21776;-80
2023/12/05 03:06:34;;;;;;;17.63;12.68;;;;;;;1.68;81.68;95605.88;4827814;29;20062;-80
2023/12/05 03:09:03;;;;;;;20.02;13.35;;;;;;;1.70;81.64;95609.09;4827010;29;20051;-80
2023/12/05 03:11:31;;;;;;;19.23;12.25;;;;;;;1.70;81.53;95606.53;4827792;29;20517;-79
2023/12/05 03:13:59;;;;;;;18.92;12.70;;;;;;;1.71;81.27;95610.72;4828045;29;20051;-80
2023/12/05 03:16:27;;;;;;;18.45;12.45;;;;;;;1.70;81.31;95604.75;4828030;29;20350;-80
2023/12/05 03:18:56;;;;;;;22.50;13.68;;;;;;;1.70;80.98;95616.81;4840310;29;20058;-80
2023/12/05 03:21:24;;;;;;;21.27;14.55;;;;;;;1.68;80.96;95616.16;4849038;29;20062;-79
2023/12/05 03:23:52;;;;;;;23.10;14.90;;;;;;;1.63;80.75;95621.75;4848867;29;20073;-79
2023/12/05 03:26:20;;;;;;;19.80;14.52;;;;;;;1.59;80.67;95617.84;4839149;29;20058;-80
2023/12/05 03:28:48;;;;;;;19.00;13.52;;;;;;;1.58;81.23;95621.41;4827331;29;20579;-80
2023/12/05 03:31:16;;;;;;;21.20;14.52;;;;;;;1.56;81.09;95624.09;4828078;29;20107;-80
2023/12/05 03:33:44;;;;;;;23.73;14.93;;;;;;;1.54;80.60;95630.38;4827161;29;20054;-80
2023/12/05 03:36:14;;;;;;;26.05;16.02;;;;;;;1.53;81.00;95634.69;4826654;29;20058;-80
2023/12/05 03:38:41;;;;;;;21.17;14.23;;;;;;;1.50;81.11;95623.91;4827035;29;20070;-80
2023/12/05 03:41:09;;;;;;;20.60;13.65;;;;;;;1.48;80.81;95630.94;4827488;29;20096;-80
2023/12/05 03:43:37;;;;;;;21.75;14.40;;;;;;;1.46;80.87;95622.59;4827213;29;20061;-79
2023/12/05 03:46:05;;;;;;;19.52;13.93;;;;;;;1.43;81.04;95616.78;4826345;29;20475;-80
2023/12/05 03:48:33;;;;;;;21.48;14.38;;;;;;;1.42;80.91;95604.06;4826911;29;20118;-80
2023/12/05 03:51:00;;;;;;;22.15;14.32;;;;;;;1.39;80.95;95624.94;4827455;29;20063;-80
2023/12/05 03:53:30;;;;;;;20.40;14.30;;;;;;;1.34;80.99;95627.16;4826754;29;20090;-80
2023/12/05 03:55:57;;;;;;;21.85;14.68;;;;;;;1.33;80.84;95625.53;4826501;29;20050;-80
2023/12/05 03:58:25;;;;;;;21.55;14.45;;;;;;;1.31;81.27;95625.69;4825226;29;20074;-79
2023/12/05 04:00:52;;;;;;;23.45;15.18;;;;;;;1.33;81.48;95630.66;4826642;29;20115;-80
2023/12/05 04:03:20;;;;;;;21.67;15.10;;;;;;;1.31;81.21;95630.00;4826368;29;20069;-80
2023/12/05 04:05:48;;;;;;;23.10;15.52;;;;;;;1.28;81.53;95627.75;4826869;29;20054;-79
2023/12/05 04:08:15;;;;;;;22.60;15.32;;;;;;;1.29;81.30;95637.06;4826283;29;20058;-80
2023/12/05 04:10:44;;;;;;;23.08;14.98;;;;;;;1.30;81.58;95646.38;4826599;29;20157;-80
2023/12/05 04:13:12;;;;;;;24.05;15.40;;;;;;;1.29;81.32;95631.91;4826311;29;20061;-79
2023/12/05 04:15:40;;;;;;;22.85;14.45;;;;;;;1.29;81.47;95632.75;4826072;29;20111;-80
2023/12/05 04:18:08;;;;;;;20.30;14.15;;;;;;;1.32;81.92;95636.78;4825861;29;20085;-80
2023/12/05 04:20:35;;;;;;;25.38;15.57;;;;;;;1.34;81.87;95634.88;4825977;29;20060;-80
2023/12/05 04:23:03;;;;;;;23.30;14.73;;;;;;;1.35;81.65;95636.47;4826695;29;20136;-80
2023/12/05 04:25:31;;;;;;;23.08;15.88;;;;;;;1.37;81.52;95630.22;4826032;29;20062;-79
2023/12/05 04:27:59;;;;;;;20.48;14.60;;;;;;;1.36;81.82;95623.47;4826070;29;20047;-79
2023/12/05 04:30:27;;;;;;;28.35;15.95;;;;;;;1.33;81.38;95623.75;4826031;29;20058;-79
2023/12/05 04:32:55;;;;;;;25.38;15.60;;;;;;;1.29;81.23;95626.78;4825905;29;20058;-80
2023/12/05 04:35:22;;;;;;;23.48;15.10;;;;;;;1.23;80.96;95636.69;4826147;29;20422;-80
2023/12/05 04:37:50;;;;;;;30.25;16.92;;;;;;;1.22;81.36;95641.97;4825540;29;20086;-80
2023/12/05 04:40:19;;;;;;;22.08;14.60;;;;;;;1.18;80.97;95636.34;4825639;29;20078;-79
2023/12/05 04:42:46;;;;;;;22.55;15.63;;;;;;;1.17;81.55;95639.06;4825317;29;20054;-79
2023/12/05 04:45:16;;;;;;;24.00;15.80;;;;;;;1.14;81.55;95640.16;4825483;29;20054;-80
2023/12/05 04:47:44;;;;;;;28.25;16.67;;;;;;;1.13;81.20;95648.78;4825320;29;20140;-79
2023/12/05 04:50:12;;;;;;;23.23;15.45;;;;;;;1.11;81.57;95650.72;4825756;29;20054;-80
2023/12/05 04:52:39;;;;;;;24.17;15.45;;;;;;;1.08;81.71;95643.31;4825544;29;20050;-80
2023/12/05 04:55:08;;;;;;;23.90;15.55;;;;;;;1.08;81.62;95643.31;4825476;29;20059;-80
2023/12/05 04:57:35;;;;;;;23.80;15.23;;;;;;;1.08;81.76;95635.59;4825045;29;20481;-80
2023/12/05 05:00:05;;;;;;;24.10;15.35;;;;;;;1.10;82.05;95640.59;4825713;29;20520;-80
2023/12/05 05:02:34;;;;;;;24.88;15.70;;;;;;;1.09;82.04;95639.75;4825921;29;20086;-80
2023/12/05 05:05:02;;;;;;;23.83;15.63;;;;;;;1.09;81.53;95641.53;4825144;29;20117;-80
2023/12/05 05:07:30;;;;;;;31.05;17.63;;;;;;;1.07;81.63;95633.16;4825439;29;20514;-80
2023/12/05 05:09:58;;;;;;;23.48;15.73;;;;;;;1.06;81.97;95636.69;4825484;29;20480;-80
2023/12/05 05:12:26;;;;;;;22.92;15.55;;;;;;;1.05;81.74;95635.91;4825333;29;20063;-80
2023/12/05 05:14:53;;;;;;;22.85;15.05;;;;;;;1.08;82.36;95635.59;4825346;29;20062;-80
2023/12/05 05:17:21;;;;;;;21.35;14.40;;;;;;;1.10;82.12;95635.47;4825059;29;20141;-79
2023/12/05 05:19:50;;;;;;;24.45;15.70;;;;;;;1.10;82.37;95638.03;4824988;29;20050;-80
2023/12/05 05:22:17;;;;;;;25.02;15.55;;;;;;;1.10;82.47;95638.84;4825164;29;20083;-80
2023/12/05 05:24:45;;;;;;;23.20;14.35;;;;;;;1.10;82.17;95635.47;4824794;29;20141;-80
2023/12/05 05:27:13;;;;;;;23.50;14.48;;;;;;;1.11;82.54;95630.16;4821070;29;20129;-80
2023/12/05 05:29:40;;;;;;;23.23;14.55;;;;;;;1.12;82.24;95629.22;4814215;29;20048;-79
2023/12/05 05:32:08;;;;;;;20.60;14.00;;;;;;;1.12;82.32;95631.78;4814267;29;20055;-79
2023/12/05 05:34:35;;;;;;;28.13;16.00;;;;;;;1.12;81.94;95638.69;4806488;29;20066;-79
2023/12/05 05:37:04;;;;;;;24.58;15.45;;;;;;;1.10;82.02;95638.84;4814370;29;20201;-78
2023/12/05 05:39:33;;;;;;;20.48;13.55;;;;;;;1.11;82.12;95630.16;4817463;29;20058;-79
2023/12/05 05:42:00;;;;;;;17.88;12.35;;;;;;;1.12;82.44;95641.25;4820424;29;20426;-78
2023/12/05 05:44:28;;;;;;;20.85;13.02;;;;;;;1.16;82.67;95647.69;4822314;29;20056;-78
2023/12/05 05:46:56;;;;;;;21.55;13.85;;;;;;;1.19;83.09;95648.22;4820488;29;20058;-78
2023/12/05 05:49:24;;;;;;;25.35;15.27;;;;;;;1.20;82.65;95655.00;4824717;29;20133;-79
2023/12/05 05:51:51;;;;;;;22.58;14.07;;;;;;;1.23;82.60;95641.03;4818168;29;20509;-81
2023/12/05 05:54:21;;;;;;;24.73;15.48;;;;;;;1.22;82.31;95650.50;4806741;29;20085;-80
2023/12/05 05:56:49;;;;;;;25.05;14.48;;;;;;;1.22;82.38;95642.81;4821549;29;20078;-79
2023/12/05 05:59:17;;;;;;;23.70;14.80;;;;;;;1.22;82.04;95647.94;4824553;29;20137;-79
2023/12/05 06:01:47;;;;;;;26.88;15.95;;;;;;;1.20;81.99;95657.56;4823803;29;20056;-80
2023/12/05 06:04:15;;;;;;;24.85;17.10;;;;;;;1.16;82.10;95648.53;4826667;29;20122;-81
2023/12/05 06:06:42;;;;;;;21.25;13.85;;;;;;;1.13;82.29;95653.94;4827513;29;20031;-80
2023/12/05 06:09:10;;;;;;;28.15;15.85;;;;;;;1.10;81.66;95654.25;4827233;29;20061;-80
2023/12/05 06:11:39;;;;;;;26.85;16.48;;;;;;;1.09;81.68;95657.75;4827819;29;20031;-80
2023/12/05 06:14:07;;;;;;;27.38;15.90;;;;;;;1.06;82.04;95659.81;4810117;29;20598;-80
2023/12/05 06:16:34;;;;;;;21.35;14.15;;;;;;;1.05;82.10;95666.72;4804866;29;20142;-80
2023/12/05 06:19:02;;;;;;;20.77;12.70;;;;;;;1.06;82.41;95665.75;4804492;29;20141;-81
2023/12/05 06:21:30;;;;;;;20.35;11.88;;;;;;;1.07;82.86;95659.66;4803828;29;20145;-80
2023/12/05 06:23:57;;;;;;;17.73;11.73;;;;;;;1.11;82.92;95658.41;4806263;29;20051;-80
2023/12/05 06:26:26;;;;;;;19.17;11.98;;;;;;;1.14;82.37;95676.13;4806204;29;20146;-80
2023/12/05 06:28:55;;;;;;;18.52;11.90;;;;;;;1.16;82.71;95679.34;4805994;29;20111;-80
2023/12/05 06:31:23;;;;;;;23.90;12.57;;;;;;;1.17;82.76;95664.72;4805927;29;20079;-80
2023/12/05 06:33:51;;;;;;;23.00;14.07;;;;;;;1.17;82.32;95669.88;4806075;29;20482;-80
2023/12/05 06:36:19;;;;;;;21.52;14.18;;;;;;;1.15;81.82;95682.84;4806175;29;20496;-80
2023/12/05 06:38:47;;;;;;;22.95;15.18;;;;;;;1.12;81.73;95683.16;4805757;29;20051;-80
2023/12/05 06:41:14;;;;;;;22.88;14.18;;;;;;;1.08;81.68;95674.13;4806065;29;20063;-80
2023/12/05 06:43:42;;;;;;;21.70;14.15;;;;;;;1.07;81.86;95694.81;4811391;29;20070;-80
2023/12/05 06:46:11;;;;;;;19.15;13.32;;;;;;;1.08;82.38;95670.75;4829040;29;20035;-80
2023/12/05 06:48:38;;;;;;;24.77;14.35;;;;;;;1.10;82.44;95674.00;4828877;29;20079;-80
2023/12/05 06:51:06;;;;;;;19.08;12.95;;;;;;;1.14;82.89;95690.72;4816850;29;20055;-80
2023/12/05 06:53:34;;;;;;;22.92;12.82;;;;;;;1.15;82.86;95679.47;4806404;29;20066;-81
2023/12/05 06:56:13;;;;;;;22.20;12.82;;;;;;;1.16;82.35;95692.19;4806722;29;20120;-80
2023/12/05 06:58:42;;;;;;;25.92;14.32;;;;;;;1.18;82.62;95689.47;4805595;29;20086;-80
2023/12/05 07:01:11;;;;;;;24.23;12.98;;;;;;;1.19;82.69;95679.03;4806308;29;20518;-81
2023/12/05 07:03:39;;;;;;;19.00;12.70;;;;;;;1.19;82.60;95691.88;4805935;29;20046;-81
2023/12/05 07:06:17;;;;;;;17.42;11.38;;;;;;;1.21;82.42;95687.41;4806123;29;20103;-80
2023/12/05 07:08:45;;;;;;;20.92;11.75;;;;;;;1.23;82.34;95692.41;4805715;29;20058;-80
2023/12/05 07:11:12;;;;;;;17.52;11.25;;;;;;;1.23;82.45;95700.94;4807419;29;20082;-80
2023/12/05 07:13:40;;;;;;;20.90;11.85;;;;;;;1.24;82.68;95696.59;4806494;29;20119;-80
2023/12/05 07:16:10;;;;;;;17.98;11.75;;;;;;;1.26;82.54;95699.00;4805895;29;20091;-81
2023/12/05 07:18:39;;;;;;;19.10;12.55;;;;;;;1.28;82.54;95707.38;4805838;29;20486;-81
2023/12/05 07:21:08;;;;;;;21.55;13.68;;;;;;;1.26;82.13;95719.56;4805499;29;20051;-80
2023/12/05 07:23:35;;;;;;;21.85;13.43;;;;;;;1.24;82.41;95712.81;4805650;29;20062;-81
2023/12/05 07:26:03;;;;;;;17.63;12.20;;;;;;;1.23;82.44;95712.97;4805818;29;20112;-81
2023/12/05 07:28:31;;;;;;;20.35;13.70;;;;;;;1.23;82.24;95723.25;4805619;29;20055;-80
2023/12/05 07:30:58;;;;;;;20.33;12.30;;;;;;;1.21;82.35;95720.81;4806066;29;20510;-80
2023/12/05 07:33:26;;;;;;;17.73;11.15;;;;;;;1.23;82.34;95729.19;4808619;29;20547;-80
2023/12/05 07:35:57;;;;;;;19.13;11.07;;;;;;;1.27;82.98;95731.44;4808198;29;20070;-80
2023/12/05 07:38:25;;;;;;;17.58;12.40;;;;;;;1.29;82.37;95738.09;4808473;29;20086;-80
2023/12/05 07:40:53;;;;;;;18.58;12.00;;;;;;;1.32;82.31;95734.41;4809120;29;20085;-81
2023/12/05 07:43:20;;;;;;;17.55;10.93;;;;;;;1.31;81.96;95732.78;4808885;29;20055;-80
2023/12/05 07:45:48;;;;;;;18.90;12.48;;;;;;;1.30;82.25;95736.31;4809142;29;20116;-80
2023/12/05 07:48:15;;;;;;;19.15;12.20;;;;;;;1.28;81.97;95758.78;4808477;29;20055;-80
2023/12/05 07:50:43;;;;;;;18.52;12.00;;;;;;;1.28;82.45;95733.09;4811082;29;20149;-80
2023/12/05 07:53:12;;;;;;;19.95;12.10;;;;;;;1.27;81.78;95744.28;4823220;29;20085;-80
2023/12/05 07:55:40;;;;;;;19.88;11.95;;;;;;;1.26;81.91;95740.94;4825249;29;20061;-80
2023/12/05 07:58:08;;;;;;;17.45;11.77;;;;;;;1.26;81.75;95740.13;4821378;29;20522;-80
2023/12/05 08:00:38;;;;;;;17.85;10.98;;;;;;;1.28;82.29;95751.88;4808622;29;20046;-80
2023/12/05 08:03:06;;;;;;;18.33;11.35;;;;;;;1.31;82.25;95753.34;4808299;29;20054;-80
2023/12/05 08:05:34;;;;;;;16.42;10.77;;;;;;;1.34;81.93;95747.91;4808797;29;20474;-81
2023/12/05 08:08:01;;;;;;;18.02;11.00;;;;;;;1.35;82.00;95750.31;4808800;29;20062;-80
2023/12/05 08:10:30;;;;;;;16.77;11.30;;;;;;;1.37;81.99;95753.56;4808957;29;20085;-81
2023/12/05 08:12:58;;;;;;;21.77;10.88;;;;;;;1.39;82.08;95756.00;4808416;29;20055;-81
2023/12/05 08:15:26;;;;;;;18.63;11.50;;;;;;;1.42;81.65;95753.13;4807943;29;20055;-81
2023/12/05 08:17:53;;;;;;;20.05;12.32;;;;;;;1.40;81.73;95745.56;4808025;29;20115;-80
2023/12/05 08:20:21;;;;;;;18.70;12.00;;;;;;;1.38;81.42;95754.38;4808090;29;20051;-81
2023/12/05 08:22:49;;;;;;;22.23;11.57;;;;;;;1.39;81.96;95750.84;4808448;29;20078;-80
2023/12/05 08:25:17;;;;;;;20.40;10.05;;;;;;;1.40;82.01;95749.88;4808137;29;20581;-81
2023/12/05 08:27:46;;;;;;;18.25;10.13;;;;;;;1.42;82.05;95750.56;4808408;29;20060;-80
2023/12/05 08:30:14;;;;;;;19.48;11.55;;;;;;;1.43;81.63;95747.03;4808421;29;20051;-80
2023/12/05 08:32:42;;;;;;;16.88;10.43;;;;;;;1.44;82.11;95748.66;4809177;29;20520;-80
2023/12/05 08:35:10;;;;;;;20.85;11.98;;;;;;;1.43;81.98;95752.19;4807875;29;20059;-81
2023/12/05 08:37:38;;;;;;;22.77;14.25;;;;;;;1.43;81.78;95758.13;4808204;29;20066;-81
2023/12/05 08:40:07;;;;;;;20.77;10.75;;;;;;;1.44;81.73;95764.06;4808002;29;20054;-81
2023/12/05 08:42:35;;;;;;;19.23;10.98;;;;;;;1.46;81.75;95757.00;4807974;29;20090;-81
2023/12/05 08:45:04;;;;;;;17.08;10.48;;;;;;;1.49;81.73;95761.88;4807499;29;20065;-81
2023/12/05 08:47:32;;;;;;;18.15;11.50;;;;;;;1.52;82.05;95758.22;4807881;29;20097;-81
2023/12/05 08:49:59;;;;;;;14.85;10.55;;;;;;;1.53;81.50;95760.63;4807880;29;20115;-81
2023/12/05 08:52:27;;;;;;;16.05;11.20;;;;;;;1.53;81.74;95758.06;4807912;29;20051;-81
2023/12/05 08:54:55;;;;;;;18.45;11.02;;;;;;;1.56;81.33;95751.81;4807936;29;20094;-81
2023/12/05 08:57:22;;;;;;;19.35;11.80;;;;;;;1.57;81.43;95749.09;4807582;29;20510;-80
2023/12/05 08:59:50;;;;;;;23.17;13.88;;;;;;;1.60;81.83;95751.38;4808036;29;20055;-81
2023/12/05 09:02:21;;;;;;;18.08;11.57;;;;;;;1.62;81.87;95751.25;4807616;29;20111;-80
2023/12/05 09:04:48;;;;;;;19.15;11.82;;;;;;;1.67;81.84;95755.94;4807262;29;20090;-81
2023/12/05 09:07:16;;;;;;;15.35;10.13;;;;;;;1.72;81.77;95759.66;4808050;29;20081;-81
2023/12/05 09:09:45;;;;;;;17.35;11.63;;;;;;;1.77;81.93;95760.06;4809848;29;20090;-80
2023/12/05 09:12:12;;;;;;;18.23;11.32;;;;;;;1.85;82.01;95756.72;4809583;29;20050;-81
2023/12/05 09:14:40;;;;;;;16.10;11.45;;;;;;;1.90;81.92;95766.56;4807837;29;20515;-81
2023/12/05 09:17:09;;;;;;;18.02;11.45;;;;;;;1.94;82.06;95768.69;4807319;29;20577;-81
2023/12/05 09:19:39;;;;;;;18.83;12.00;;;;;;;1.97;81.67;95760.69;4807397;29;20116;-81
2023/12/05 09:22:06;;;;;;;19.00;10.85;;;;;;;2.03;81.78;95759.28;4807276;29;20516;-80
2023/12/05 09:24:34;;;;;;;16.63;10.85;;;;;;;2.08;81.65;95767.38;4807134;29;20132;-81
2023/12/05 09:27:02;;;;;;;16.85;10.93;;;;;;;2.15;81.44;95765.81;4807181;29;20047;-81
2023/12/05 09:29:31;;;;;;;17.17;11.40;;;;;;;2.21;81.18;95767.00;4807051;29;20133;-81
2023/12/05 09:31:58;;;;;;;16.48;10.02;;;;;;;2.26;81.65;95769.91;4807182;29;20053;-80
2023/12/05 09:34:26;;;;;;;18.17;11.68;;;;;;;2.32;81.50;95776.19;4806579;29;20059;-81
2023/12/05 09:36:55;;;;;;;22.92;12.00;;;;;;;2.38;81.67;95773.84;4806571;29;20054;-80
2023/12/05 09:39:23;;;;;;;14.52;9.90;;;;;;;2.45;81.54;95774.88;4806559;29;20115;-81
2023/12/05 09:41:53;;;;;;;16.15;10.10;;;;;;;2.53;81.01;95781.00;4806974;29;20139;-81
2023/12/05 09:44:22;;;;;;;18.23;11.40;;;;;;;2.61;80.76;95788.78;4806877;29;20067;-81
2023/12/05 09:46:53;;;;;;;17.95;12.00;;;;;;;2.68;80.57;95777.72;4806921;29;20054;-81
2023/12/05 09:49:26;;;;;;;13.95;9.98;;;;;;;2.74;80.45;95786.63;4806411;29;20517;-80
2023/12/05 09:51:55;;;;;;;18.60;9.52;;;;;;;2.80;80.31;95783.44;4806871;29;20070;-80
2023/12/05 09:54:25;;;;;;;14.35;9.52;;;;;;;2.87;80.21;95787.00;4806245;29;20055;-81
2023/12/05 09:56:55;;;;;;;16.15;9.82;;;;;;;2.95;79.82;95788.81;4806146;29;20066;-81
2023/12/05 09:59:23;;;;;;;18.90;10.18;;;;;;;3.04;80.09;95787.06;4806294;29;20055;-82
2023/12/05 10:01:53;;;;;;;15.43;9.77;;;;;;;3.11;79.71;95785.50;4806163;29;20059;-81
2023/12/05 10:04:23;;;;;;;22.10;11.93;;;;;;;3.18;79.57;95781.34;4806085;29;20067;-82
2023/12/05 10:06:52;;;;;;;15.63;9.90;;;;;;;3.25;79.67;95777.16;4806388;29;20058;-82
2023/12/05 10:09:23;;;;;;;13.65;9.45;;;;;;;3.35;79.21;95776.25;4806084;29;20062;-82
2023/12/05 10:11:51;;;;;;;15.60;9.40;;;;;;;3.43;79.27;95779.66;4807809;29;20080;-82
2023/12/05 10:14:19;;;;;;;15.48;8.88;;;;;;;3.51;79.09;95774.50;4806100;29;20483;-82
2023/12/05 10:16:47;;;;;;;12.98;8.18;;;;;;;3.60;79.09;95782.25;4806111;29;20059;-82
2023/12/05 10:19:15;;;;;;;12.48;7.93;;;;;;;3.65;78.66;95783.41;4806015;29;20500;-82
2023/12/05 10:21:44;;;;;;;14.82;9.07;;;;;;;3.75;78.16;95792.75;4805928;29;20142;-81
2023/12/05 10:24:38;;;;;;;11.75;8.82;;;;;;;3.78;78.05;95785.50;5092604;27;20362;-81
2023/12/05 10:27:07;;;;;;;15.95;10.00;;;;;;;3.85;78.09;95780.53;5092766;28;20048;-80
2023/12/05 10:29:38;;;;;;;14.32;9.23;;;;;;;3.90;77.92;95776.47;5096627;28;20079;-81
2023/12/05 10:32:07;;;;;;;13.07;8.63;;;;;;;4.01;77.91;95779.72;5111265;28;20058;-81
2023/12/05 10:34:48;;;;;;;14.18;8.38;;;;;;;4.09;77.45;95779.72;5112764;28;20055;-81
2023/12/05 10:37:21;;;;;;;13.20;8.32;;;;;;;4.18;76.61;95777.97;5173584;22;20453;-76
2023/12/05 10:39:50;;;;;;;15.20;9.00;;;;;;;4.25;76.61;95777.13;5069396;28;20102;-77
2023/12/05 10:42:19;;;;;;;12.32;8.13;;;;;;;4.32;76.55;95779.88;5068993;28;20524;-76
2023/12/05 10:44:47;;;;;;;11.32;7.97;;;;;;;4.41;76.69;95771.16;5069243;28;20087;-75
2023/12/05 10:47:15;;;;;;;10.02;7.32;;;;;;;4.49;76.01;95763.38;5069205;28;20131;-76
2023/12/05 10:49:49;;;;;;;12.17;8.47;;;;;;;4.60;75.95;95771.78;5088713;28;20052;-76
2023/12/05 10:52:16;;;;;;;14.50;8.10;;;;;;;4.74;76.17;95768.50;5092461;28;20029;-76
2023/12/05 10:54:44;;;;;;;12.52;8.32;;;;;;;4.85;75.67;95765.56;5086019;28;20485;-76
2023/12/05 10:57:13;;;;;;;11.15;7.78;;;;;;;4.95;75.22;95770.53;5071212;28;20076;-76
2023/12/05 10:59:41;;;;;;;11.43;7.90;;;;;;;5.08;75.31;95767.44;5070419;28;20055;-76
2023/12/05 11:02:13;;;;;;;11.23;6.55;;;;;;;5.21;74.76;95770.28;5070013;28;20071;-77
2023/12/05 11:04:41;;;;;;;11.57;7.50;;;;;;;5.36;75.27;95763.41;5069814;28;20044;-77
2023/12/05 11:07:09;;;;;;;11.80;7.40;;;;;;;5.55;74.78;95775.13;5068803;28;20049;-76
2023/12/05 11:09:37;;;;;;;8.25;6.18;;;;;;;5.73;74.14;95764.50;5069144;28;20045;-77
2023/12/05 11:12:06;;;;;;;10.57;6.35;;;;;;;5.93;73.68;95758.88;5069115;28;20102;-77
2023/12/05 11:14:40;;;;;;;9.18;5.88;;;;;;;6.15;72.90;95763.25;5068826;28;20569;-77
2023/12/05 11:17:11;;;;;;;10.90;5.85;;;;;;;6.40;72.26;95758.66;5068706;28;20140;-77
2023/12/05 11:20:01;;;;;;;7.78;5.65;;;;;;;6.65;70.22;95757.59;5068982;28;20091;-77
2023/12/05 11:22:38;;;;;;;7.75;5.90;;;;;;;6.90;70.53;95756.38;5068675;28;20045;-77
2023/12/05 11:25:29;;;;;;;8.25;5.43;;;;;;;7.15;68.17;95759.50;5068915;28;20124;-77
2023/12/05 11:28:08;;;;;;;7.53;5.30;;;;;;;7.38;68.85;95758.56;5068635;28;20096;-77
2023/12/05 11:31:03;;;;;;;9.95;6.07;;;;;;;7.58;67.91;95748.41;5068976;28;20049;-78
2023/12/05 11:33:48;;;;;;;9.70;5.47;;;;;;;7.78;67.29;95753.78;5068188;28;20416;-77
2023/12/05 11:36:29;;;;;;;8.18;5.88;;;;;;;7.90;65.92;95748.94;5054929;28;20139;-80
2023/12/05 11:38:59;;;;;;;7.85;5.78;;;;;;;8.04;67.02;95753.22;5055197;28;20055;-80